ZSCNJ LEMH-LMML
Flight info
| Callsign | ZSCNJ |
|---|---|
| Flight time | N/A |
| Altitude | 5000 |
| Route | MORSS DCT TABOT DCT SENTI DCT ROBIM DCT RATOK DCT UPLIT DCT TIVOR/N0158F040 |
| Aircraft | PA24/L-SDGRY/S |
Departure
| Time | 2026-04-16 08:00 |
|---|---|
| Airport | Menorca Airport (LEMH) |
Arrival
| Time | N/A |
|---|---|
| Airport | Malta International Airport (LMML) |
| Time | Latitude | Longitude | Altitude | Speed | Heading |
|---|---|---|---|---|---|
| 2026-04-16 07:47 | 39.86123 | 4.22257 | 292 ft | 0 kts | 11° |
| 2026-04-16 07:54 | 39.86125 | 4.22258 | 292 ft | 1 kts | 24° |
| 2026-04-16 07:54 | 39.86134 | 4.22277 | 295 ft | 5 kts | 51° |
| 2026-04-16 07:54 | 39.86174 | 4.22274 | 293 ft | 8 kts | 296° |
| 2026-04-16 07:54 | 39.86185 | 4.22192 | 293 ft | 10 kts | 279° |
| 2026-04-16 07:55 | 39.86187 | 4.22117 | 293 ft | 8 kts | 237° |
| 2026-04-16 07:55 | 39.86140 | 4.22079 | 292 ft | 10 kts | 195° |
| 2026-04-16 07:55 | 39.86054 | 4.22061 | 291 ft | 15 kts | 189° |
| 2026-04-16 07:55 | 39.85936 | 4.22038 | 290 ft | 19 kts | 188° |
| 2026-04-16 07:56 | 39.85799 | 4.22009 | 289 ft | 21 kts | 188° |
| 2026-04-16 07:56 | 39.85644 | 4.21981 | 287 ft | 24 kts | 187° |
| 2026-04-16 07:56 | 39.85474 | 4.21947 | 286 ft | 23 kts | 191° |
| 2026-04-16 07:56 | 39.85324 | 4.21913 | 284 ft | 23 kts | 191° |
| 2026-04-16 07:57 | 39.85187 | 4.21884 | 283 ft | 16 kts | 185° |
| 2026-04-16 07:57 | 39.85073 | 4.21865 | 282 ft | 14 kts | 192° |
| 2026-04-16 07:57 | 39.85062 | 4.21847 | 281 ft | 2 kts | 332° |
| 2026-04-16 07:57 | 39.85063 | 4.21846 | 281 ft | 0 kts | 337° |
| 2026-04-16 07:58 | 39.85065 | 4.21845 | 281 ft | 3 kts | 336° |
| 2026-04-16 07:58 | 39.85103 | 4.21808 | 282 ft | 11 kts | 317° |
| 2026-04-16 07:58 | 39.85144 | 4.21690 | 281 ft | 18 kts | 281° |
| 2026-04-16 07:59 | 39.85264 | 4.21663 | 283 ft | 37 kts | 8° |
| 2026-04-16 07:59 | 39.85697 | 4.21754 | 301 ft | 81 kts | 5° |
| 2026-04-16 07:59 | 39.86296 | 4.21883 | 428 ft | 92 kts | 8° |
| 2026-04-16 07:59 | 39.86923 | 4.22069 | 643 ft | 93 kts | 11° |
| 2026-04-16 08:00 | 39.87340 | 4.22186 | 756 ft | 92 kts | 8° |
| 2026-04-16 08:00 | 39.88184 | 4.22373 | 925 ft | 94 kts | 9° |
| 2026-04-16 08:00 | 39.88616 | 4.22477 | 1027 ft | 92 kts | 7° |
| 2026-04-16 08:00 | 39.89247 | 4.22564 | 1191 ft | 93 kts | 3° |
| 2026-04-16 08:01 | 39.89884 | 4.22601 | 1385 ft | 89 kts | 1° |
| 2026-04-16 08:01 | 39.90719 | 4.22632 | 1599 ft | 91 kts | 4° |
| 2026-04-16 08:01 | 39.91137 | 4.22673 | 1718 ft | 91 kts | 5° |
| 2026-04-16 08:01 | 39.91765 | 4.22747 | 1942 ft | 89 kts | 7° |
| 2026-04-16 08:02 | 39.92371 | 4.22825 | 2090 ft | 90 kts | 6° |
| 2026-04-16 08:02 | 39.93641 | 4.22984 | 2494 ft | 92 kts | 6° |
| 2026-04-16 08:02 | 39.94286 | 4.23077 | 2664 ft | 92 kts | 7° |
| 2026-04-16 08:03 | 39.94908 | 4.23180 | 2849 ft | 93 kts | 17° |
| 2026-04-16 08:03 | 39.95417 | 4.23745 | 2970 ft | 102 kts | 61° |
| 2026-04-16 08:03 | 39.95449 | 4.24648 | 3180 ft | 105 kts | 97° |
| 2026-04-16 08:03 | 39.95231 | 4.25578 | 3380 ft | 109 kts | 99° |
| 2026-04-16 08:04 | 39.94988 | 4.26515 | 3584 ft | 110 kts | 99° |
| 2026-04-16 08:04 | 39.94740 | 4.27462 | 3817 ft | 111 kts | 101° |
| 2026-04-16 08:04 | 39.94490 | 4.28424 | 4051 ft | 112 kts | 100° |
| 2026-04-16 08:04 | 39.94246 | 4.29390 | 4211 ft | 111 kts | 99° |
| 2026-04-16 08:05 | 39.94061 | 4.30367 | 4376 ft | 111 kts | 93° |
| 2026-04-16 08:05 | 39.93941 | 4.31352 | 4552 ft | 111 kts | 88° |
| 2026-04-16 08:05 | 39.93899 | 4.32352 | 4730 ft | 111 kts | 84° |
| 2026-04-16 08:05 | 39.93900 | 4.33354 | 4889 ft | 110 kts | 82° |
| 2026-04-16 08:06 | 39.93906 | 4.34351 | 5051 ft | 110 kts | 82° |
| 2026-04-16 08:06 | 39.93929 | 4.35347 | 5207 ft | 111 kts | 81° |
| 2026-04-16 08:06 | 39.93977 | 4.36351 | 5388 ft | 111 kts | 79° |
| 2026-04-16 08:06 | 39.94051 | 4.37362 | 5547 ft | 112 kts | 78° |
| 2026-04-16 08:07 | 39.94150 | 4.38373 | 5725 ft | 112 kts | 73° |
| 2026-04-16 08:07 | 39.94304 | 4.39359 | 5888 ft | 112 kts | 70° |
| 2026-04-16 08:07 | 39.94499 | 4.40341 | 6065 ft | 111 kts | 68° |
| 2026-04-16 08:07 | 39.94709 | 4.41320 | 6225 ft | 113 kts | 68° |
| 2026-04-16 08:08 | 39.94908 | 4.42305 | 6386 ft | 114 kts | 70° |
| 2026-04-16 08:08 | 39.95083 | 4.43310 | 6566 ft | 114 kts | 71° |
| 2026-04-16 08:08 | 39.95235 | 4.44338 | 6713 ft | 116 kts | 73° |
| 2026-04-16 08:08 | 39.95351 | 4.45374 | 6872 ft | 116 kts | 78° |
| 2026-04-16 08:09 | 39.95406 | 4.46433 | 7016 ft | 118 kts | 80° |
| 2026-04-16 08:09 | 39.95438 | 4.47482 | 7175 ft | 117 kts | 83° |
| 2026-04-16 08:09 | 39.95444 | 4.48559 | 7323 ft | 119 kts | 84° |
| 2026-04-16 08:09 | 39.95412 | 4.49637 | 7479 ft | 119 kts | 87° |
| 2026-04-16 08:10 | 39.95362 | 4.50702 | 7624 ft | 120 kts | 87° |
| 2026-04-16 08:10 | 39.95307 | 4.51786 | 7774 ft | 119 kts | 87° |
| 2026-04-16 08:10 | 39.95252 | 4.52873 | 7926 ft | 120 kts | 87° |
| 2026-04-16 08:10 | 39.95194 | 4.53964 | 8073 ft | 121 kts | 88° |
| 2026-04-16 08:11 | 39.95142 | 4.55059 | 8219 ft | 121 kts | 87° |
| 2026-04-16 08:11 | 39.95100 | 4.56144 | 8361 ft | 121 kts | 86° |
| 2026-04-16 08:11 | 39.95069 | 4.57243 | 8504 ft | 121 kts | 85° |
| 2026-04-16 08:11 | 39.95054 | 4.58341 | 8643 ft | 121 kts | 83° |
| 2026-04-16 08:12 | 39.95060 | 4.59439 | 8785 ft | 121 kts | 82° |
| 2026-04-16 08:12 | 39.95087 | 4.60534 | 8928 ft | 121 kts | 80° |
| 2026-04-16 08:12 | 39.95132 | 4.61619 | 9058 ft | 121 kts | 79° |
| 2026-04-16 08:12 | 39.95192 | 4.62716 | 9196 ft | 120 kts | 78° |
| 2026-04-16 08:13 | 39.95273 | 4.63854 | 9205 ft | 131 kts | 77° |
| 2026-04-16 08:13 | 39.95373 | 4.65061 | 9208 ft | 138 kts | 77° |
| 2026-04-16 08:13 | 39.95486 | 4.66337 | 9212 ft | 144 kts | 77° |
| 2026-04-16 08:13 | 39.95600 | 4.67655 | 9209 ft | 147 kts | 78° |
| 2026-04-16 08:14 | 39.95667 | 4.68994 | 9186 ft | 152 kts | 82° |
| 2026-04-16 08:14 | 39.95664 | 4.70385 | 9195 ft | 153 kts | 87° |
| 2026-04-16 08:14 | 39.95571 | 4.71771 | 9196 ft | 155 kts | 92° |
| 2026-04-16 08:14 | 39.95377 | 4.73162 | 9197 ft | 157 kts | 97° |
| 2026-04-16 08:15 | 39.95092 | 4.74544 | 9197 ft | 158 kts | 102° |
| 2026-04-16 08:15 | 39.94722 | 4.75908 | 9197 ft | 160 kts | 107° |
| 2026-04-16 08:15 | 39.94286 | 4.77236 | 9196 ft | 162 kts | 110° |
| 2026-04-16 08:15 | 39.93790 | 4.78565 | 9196 ft | 163 kts | 112° |
| 2026-04-16 08:16 | 39.93258 | 4.79887 | 9195 ft | 164 kts | 114° |
| 2026-04-16 08:16 | 39.92725 | 4.81188 | 9194 ft | 165 kts | 114° |
| 2026-04-16 08:16 | 39.92190 | 4.82509 | 9196 ft | 165 kts | 113° |
| 2026-04-16 08:16 | 39.91671 | 4.83843 | 9195 ft | 165 kts | 111° |
| 2026-04-16 08:17 | 39.91182 | 4.85198 | 9194 ft | 164 kts | 110° |
| 2026-04-16 08:17 | 39.90735 | 4.86567 | 9194 ft | 164 kts | 107° |
| 2026-04-16 08:17 | 39.90337 | 4.87949 | 9195 ft | 164 kts | 104° |
| 2026-04-16 08:17 | 39.89983 | 4.89361 | 9192 ft | 164 kts | 102° |
| 2026-04-16 08:18 | 39.89673 | 4.90783 | 9190 ft | 163 kts | 100° |
| 2026-04-16 08:19 | 39.88070 | 5.00797 | 9190 ft | 160 kts | 96° |
| 2026-04-16 08:20 | 39.87841 | 5.02220 | 9194 ft | 160 kts | 98° |
| 2026-04-16 08:20 | 39.87584 | 5.03622 | 9193 ft | 161 kts | 99° |
| 2026-04-16 08:20 | 39.87291 | 5.05034 | 9190 ft | 161 kts | 100° |
| 2026-04-16 08:20 | 39.86982 | 5.06442 | 9190 ft | 161 kts | 102° |
| 2026-04-16 08:21 | 39.86636 | 5.07822 | 9190 ft | 162 kts | 104° |
| 2026-04-16 08:21 | 39.86270 | 5.09213 | 9189 ft | 162 kts | 104° |
| 2026-04-16 08:21 | 39.85887 | 5.10592 | 9189 ft | 162 kts | 105° |
| 2026-04-16 08:21 | 39.85504 | 5.11978 | 9191 ft | 162 kts | 105° |
| 2026-04-16 08:22 | 39.85146 | 5.13348 | 9189 ft | 162 kts | 104° |
| 2026-04-16 08:22 | 39.84770 | 5.14738 | 9191 ft | 162 kts | 105° |
| 2026-04-16 08:22 | 39.84393 | 5.16121 | 9188 ft | 162 kts | 105° |
| 2026-04-16 08:22 | 39.84025 | 5.17493 | 9188 ft | 162 kts | 104° |
| 2026-04-16 08:23 | 39.83665 | 5.18891 | 9189 ft | 162 kts | 103° |
| 2026-04-16 08:23 | 39.83311 | 5.20270 | 9189 ft | 162 kts | 103° |
| 2026-04-16 08:23 | 39.82961 | 5.21663 | 9188 ft | 161 kts | 102° |
| 2026-04-16 08:23 | 39.82640 | 5.23063 | 9185 ft | 161 kts | 102° |
| 2026-04-16 08:24 | 39.82330 | 5.24465 | 9185 ft | 161 kts | 101° |
| 2026-04-16 08:24 | 39.82052 | 5.25857 | 9187 ft | 160 kts | 100° |
| 2026-04-16 08:24 | 39.81766 | 5.27265 | 9186 ft | 160 kts | 101° |
| 2026-04-16 08:24 | 39.81482 | 5.28668 | 9189 ft | 160 kts | 100° |
| 2026-04-16 08:25 | 39.81209 | 5.30058 | 9189 ft | 160 kts | 100° |
| 2026-04-16 08:25 | 39.80928 | 5.31451 | 9181 ft | 157 kts | 99° |
| 2026-04-16 08:25 | 39.80645 | 5.32828 | 9183 ft | 157 kts | 100° |
| 2026-04-16 08:25 | 39.80364 | 5.34182 | 9184 ft | 156 kts | 101° |
| 2026-04-16 08:26 | 39.80065 | 5.35547 | 9185 ft | 156 kts | 102° |
| 2026-04-16 08:26 | 39.79758 | 5.36898 | 9180 ft | 155 kts | 101° |
| 2026-04-16 08:26 | 39.79461 | 5.38251 | 9184 ft | 155 kts | 102° |
| 2026-04-16 08:26 | 39.79139 | 5.39570 | 9181 ft | 155 kts | 103° |
| 2026-04-16 08:27 | 39.78792 | 5.40905 | 9183 ft | 155 kts | 104° |
| 2026-04-16 08:27 | 39.78458 | 5.42224 | 9185 ft | 155 kts | 104° |
| 2026-04-16 08:27 | 39.78124 | 5.43571 | 9183 ft | 155 kts | 103° |
| 2026-04-16 08:27 | 39.77800 | 5.44895 | 9181 ft | 155 kts | 103° |
| 2026-04-16 08:28 | 39.77463 | 5.46232 | 9186 ft | 155 kts | 103° |
| 2026-04-16 08:28 | 39.77118 | 5.47566 | 9186 ft | 155 kts | 104° |
| 2026-04-16 08:28 | 39.76788 | 5.48905 | 9183 ft | 155 kts | 103° |
| 2026-04-16 08:28 | 39.76479 | 5.50235 | 9186 ft | 155 kts | 102° |
| 2026-04-16 08:29 | 39.76173 | 5.51583 | 9183 ft | 155 kts | 101° |
| 2026-04-16 08:29 | 39.75869 | 5.52927 | 9183 ft | 155 kts | 102° |
| 2026-04-16 08:29 | 39.75552 | 5.54251 | 9182 ft | 155 kts | 102° |
| 2026-04-16 08:29 | 39.75244 | 5.55596 | 9181 ft | 155 kts | 102° |
| 2026-04-16 08:30 | 39.74950 | 5.56928 | 9177 ft | 154 kts | 101° |
| 2026-04-16 08:30 | 39.74650 | 5.58268 | 9180 ft | 154 kts | 102° |
| 2026-04-16 08:30 | 39.74337 | 5.59604 | 9183 ft | 154 kts | 102° |
| 2026-04-16 08:30 | 39.74025 | 5.60938 | 9178 ft | 154 kts | 102° |
| 2026-04-16 08:31 | 39.73717 | 5.62276 | 9177 ft | 154 kts | 102° |
| 2026-04-16 08:31 | 39.73412 | 5.63614 | 9179 ft | 154 kts | 102° |
| 2026-04-16 08:31 | 39.73106 | 5.64941 | 9178 ft | 154 kts | 102° |
| 2026-04-16 08:31 | 39.72789 | 5.66276 | 9177 ft | 154 kts | 102° |
| 2026-04-16 08:32 | 39.72476 | 5.67611 | 9177 ft | 154 kts | 102° |
| 2026-04-16 08:32 | 39.72163 | 5.68948 | 9180 ft | 154 kts | 102° |
| 2026-04-16 08:32 | 39.71854 | 5.70265 | 9177 ft | 154 kts | 102° |
| 2026-04-16 08:32 | 39.71541 | 5.71599 | 9181 ft | 154 kts | 102° |
| 2026-04-16 08:33 | 39.71226 | 5.72934 | 9178 ft | 154 kts | 102° |
| 2026-04-16 08:33 | 39.70910 | 5.74268 | 9177 ft | 154 kts | 102° |
| 2026-04-16 08:33 | 39.70595 | 5.75583 | 9180 ft | 154 kts | 102° |
| 2026-04-16 08:33 | 39.70276 | 5.76913 | 9178 ft | 154 kts | 102° |
| 2026-04-16 08:34 | 39.69957 | 5.78238 | 9178 ft | 154 kts | 102° |
| 2026-04-16 08:34 | 39.69639 | 5.79564 | 9172 ft | 154 kts | 102° |
| 2026-04-16 08:34 | 39.69319 | 5.80895 | 9173 ft | 154 kts | 102° |
| 2026-04-16 08:34 | 39.69006 | 5.82209 | 9174 ft | 154 kts | 102° |
| 2026-04-16 08:35 | 39.68691 | 5.83538 | 9173 ft | 153 kts | 102° |
| 2026-04-16 08:35 | 39.68374 | 5.84861 | 9173 ft | 153 kts | 102° |
| 2026-04-16 08:35 | 39.68059 | 5.86181 | 9174 ft | 153 kts | 102° |
| 2026-04-16 08:35 | 39.67745 | 5.87506 | 9171 ft | 153 kts | 102° |
| 2026-04-16 08:36 | 39.67437 | 5.88814 | 9174 ft | 153 kts | 102° |
| 2026-04-16 08:36 | 39.67127 | 5.90135 | 9174 ft | 153 kts | 102° |
| 2026-04-16 08:36 | 39.66816 | 5.91458 | 9171 ft | 153 kts | 102° |
| 2026-04-16 08:36 | 39.66503 | 5.92776 | 9173 ft | 153 kts | 102° |
| 2026-04-16 08:37 | 39.66188 | 5.94100 | 9172 ft | 153 kts | 102° |
| 2026-04-16 08:37 | 39.65879 | 5.95404 | 9171 ft | 153 kts | 102° |
| 2026-04-16 08:37 | 39.65565 | 5.96733 | 9174 ft | 153 kts | 102° |
| 2026-04-16 08:37 | 39.65252 | 5.98056 | 9174 ft | 153 kts | 102° |
| 2026-04-16 08:38 | 39.64943 | 5.99365 | 9172 ft | 154 kts | 102° |
| 2026-04-16 08:38 | 39.64628 | 6.00689 | 9173 ft | 153 kts | 102° |
| 2026-04-16 08:38 | 39.64311 | 6.02012 | 9171 ft | 153 kts | 102° |
| 2026-04-16 08:38 | 39.63994 | 6.03342 | 9171 ft | 153 kts | 102° |
| 2026-04-16 08:39 | 39.63682 | 6.04647 | 9171 ft | 153 kts | 102° |
| 2026-04-16 08:39 | 39.63365 | 6.05974 | 9169 ft | 153 kts | 102° |
| 2026-04-16 08:39 | 39.63046 | 6.07302 | 9171 ft | 153 kts | 102° |
| 2026-04-16 08:39 | 39.62727 | 6.08626 | 9173 ft | 154 kts | 102° |
| 2026-04-16 08:40 | 39.62415 | 6.09932 | 9171 ft | 153 kts | 102° |
| 2026-04-16 08:40 | 39.62098 | 6.11256 | 9170 ft | 153 kts | 102° |
| 2026-04-16 08:40 | 39.61782 | 6.12572 | 9170 ft | 153 kts | 102° |
| 2026-04-16 08:40 | 39.61463 | 6.13892 | 9172 ft | 153 kts | 102° |
| 2026-04-16 08:41 | 39.61143 | 6.15213 | 9169 ft | 153 kts | 102° |
| 2026-04-16 08:41 | 39.60829 | 6.16513 | 9170 ft | 153 kts | 102° |
| 2026-04-16 08:41 | 39.60509 | 6.17834 | 9172 ft | 153 kts | 102° |
| 2026-04-16 08:41 | 39.60191 | 6.19155 | 9167 ft | 153 kts | 102° |
| 2026-04-16 08:42 | 39.59874 | 6.20468 | 9169 ft | 153 kts | 102° |
| 2026-04-16 08:42 | 39.59554 | 6.21793 | 9170 ft | 153 kts | 102° |
| 2026-04-16 08:42 | 39.59241 | 6.23094 | 9167 ft | 153 kts | 102° |
| 2026-04-16 08:42 | 39.58922 | 6.24411 | 9168 ft | 153 kts | 102° |
| 2026-04-16 08:43 | 39.58604 | 6.25726 | 9170 ft | 153 kts | 102° |
| 2026-04-16 08:43 | 39.58288 | 6.27040 | 9168 ft | 153 kts | 102° |
| 2026-04-16 08:43 | 39.57977 | 6.28343 | 9169 ft | 153 kts | 102° |
| 2026-04-16 08:43 | 39.57662 | 6.29664 | 9171 ft | 152 kts | 102° |
| 2026-04-16 08:44 | 39.57348 | 6.30969 | 9172 ft | 153 kts | 102° |
| 2026-04-16 08:44 | 39.57030 | 6.32280 | 9172 ft | 152 kts | 102° |
| 2026-04-16 08:44 | 39.56709 | 6.33599 | 9169 ft | 152 kts | 102° |
| 2026-04-16 08:44 | 39.56392 | 6.34912 | 9171 ft | 152 kts | 102° |
| 2026-04-16 08:45 | 39.56079 | 6.36221 | 9172 ft | 152 kts | 102° |
| 2026-04-16 08:45 | 39.55768 | 6.37517 | 9169 ft | 152 kts | 102° |
| 2026-04-16 08:45 | 39.55450 | 6.38830 | 9171 ft | 152 kts | 102° |
| 2026-04-16 08:45 | 39.55131 | 6.40143 | 9170 ft | 152 kts | 102° |
| 2026-04-16 08:46 | 39.54816 | 6.41455 | 9167 ft | 152 kts | 102° |
| 2026-04-16 08:46 | 39.54505 | 6.42751 | 9167 ft | 152 kts | 102° |
| 2026-04-16 08:46 | 39.54187 | 6.44061 | 9166 ft | 152 kts | 102° |
| 2026-04-16 08:46 | 39.53867 | 6.45372 | 9168 ft | 152 kts | 102° |
| 2026-04-16 08:47 | 39.53547 | 6.46686 | 9169 ft | 153 kts | 102° |
| 2026-04-16 08:47 | 39.53233 | 6.47983 | 9167 ft | 152 kts | 102° |
| 2026-04-16 08:47 | 39.52914 | 6.49292 | 9165 ft | 152 kts | 102° |
| 2026-04-16 08:47 | 39.52593 | 6.50603 | 9166 ft | 152 kts | 102° |
| 2026-04-16 08:48 | 39.52274 | 6.51904 | 9169 ft | 153 kts | 102° |
| 2026-04-16 08:48 | 39.51951 | 6.53219 | 9166 ft | 153 kts | 102° |
| 2026-04-16 08:48 | 39.51628 | 6.54532 | 9168 ft | 153 kts | 102° |
| 2026-04-16 08:48 | 39.51309 | 6.55830 | 9169 ft | 152 kts | 102° |
| 2026-04-16 08:49 | 39.50987 | 6.57141 | 9166 ft | 153 kts | 102° |
| 2026-04-16 08:49 | 39.50665 | 6.58460 | 9168 ft | 153 kts | 102° |
| 2026-04-16 08:49 | 39.50348 | 6.59762 | 9167 ft | 153 kts | 102° |
| 2026-04-16 08:49 | 39.50028 | 6.61076 | 9166 ft | 153 kts | 102° |
| 2026-04-16 08:50 | 39.49707 | 6.62389 | 9167 ft | 153 kts | 102° |
| 2026-04-16 08:50 | 39.49493 | 6.63260 | 9163 ft | 153 kts | 102° |
| 2026-04-16 08:50 | 39.49168 | 6.64575 | 9162 ft | 153 kts | 102° |
| 2026-04-16 08:50 | 39.48844 | 6.65896 | 9164 ft | 153 kts | 102° |
| 2026-04-16 08:51 | 39.48526 | 6.67198 | 9164 ft | 153 kts | 102° |
| 2026-04-16 08:51 | 39.48204 | 6.68516 | 9165 ft | 153 kts | 102° |
| 2026-04-16 08:51 | 39.47880 | 6.69835 | 9163 ft | 153 kts | 102° |
| 2026-04-16 08:51 | 39.47556 | 6.71149 | 9165 ft | 153 kts | 102° |
| 2026-04-16 08:52 | 39.47231 | 6.72470 | 9165 ft | 153 kts | 102° |
| 2026-04-16 08:52 | 39.46909 | 6.73786 | 9165 ft | 153 kts | 102° |
| 2026-04-16 08:52 | 39.46589 | 6.75086 | 9165 ft | 153 kts | 102° |
| 2026-04-16 08:52 | 39.46262 | 6.76403 | 9164 ft | 154 kts | 102° |
| 2026-04-16 08:53 | 39.45935 | 6.77719 | 9160 ft | 154 kts | 102° |
| 2026-04-16 08:53 | 39.45610 | 6.79037 | 9163 ft | 154 kts | 102° |
| 2026-04-16 08:53 | 39.45284 | 6.80357 | 9161 ft | 153 kts | 102° |
| 2026-04-16 08:53 | 39.44963 | 6.81661 | 9162 ft | 153 kts | 102° |
| 2026-04-16 08:54 | 39.44639 | 6.82980 | 9163 ft | 153 kts | 102° |
| 2026-04-16 08:54 | 39.44314 | 6.84299 | 9161 ft | 154 kts | 102° |
| 2026-04-16 08:54 | 39.43989 | 6.85618 | 9160 ft | 154 kts | 102° |
| 2026-04-16 08:54 | 39.43668 | 6.86930 | 9160 ft | 154 kts | 102° |
| 2026-04-16 08:55 | 39.43344 | 6.88251 | 9162 ft | 154 kts | 102° |
| 2026-04-16 08:55 | 39.43019 | 6.89573 | 9161 ft | 154 kts | 102° |
| 2026-04-16 08:55 | 39.42693 | 6.90893 | 9162 ft | 154 kts | 102° |
| 2026-04-16 08:55 | 39.42364 | 6.92214 | 9162 ft | 154 kts | 102° |
| 2026-04-16 08:56 | 39.42038 | 6.93521 | 9162 ft | 154 kts | 102° |
| 2026-04-16 08:56 | 39.41709 | 6.94843 | 9162 ft | 154 kts | 102° |
| 2026-04-16 08:56 | 39.41377 | 6.96169 | 9163 ft | 154 kts | 102° |
| 2026-04-16 08:56 | 39.41047 | 6.97485 | 9165 ft | 154 kts | 102° |
| 2026-04-16 08:57 | 39.40721 | 6.98790 | 9164 ft | 154 kts | 102° |
| 2026-04-16 08:57 | 39.40389 | 7.00115 | 9165 ft | 154 kts | 102° |
| 2026-04-16 08:57 | 39.40062 | 7.01420 | 9163 ft | 154 kts | 102° |
| 2026-04-16 08:57 | 39.39734 | 7.02739 | 9164 ft | 154 kts | 102° |
| 2026-04-16 08:58 | 39.39406 | 7.04060 | 9162 ft | 154 kts | 102° |
| 2026-04-16 08:58 | 39.39077 | 7.05379 | 9163 ft | 154 kts | 102° |
| 2026-04-16 08:58 | 39.38746 | 7.06701 | 9162 ft | 154 kts | 102° |
| 2026-04-16 08:58 | 39.38419 | 7.08006 | 9163 ft | 154 kts | 102° |
| 2026-04-16 08:59 | 39.38089 | 7.09327 | 9162 ft | 154 kts | 102° |
| 2026-04-16 08:59 | 39.37765 | 7.10630 | 9163 ft | 154 kts | 102° |
| 2026-04-16 08:59 | 39.37438 | 7.11948 | 9163 ft | 154 kts | 102° |
| 2026-04-16 08:59 | 39.37109 | 7.13266 | 9166 ft | 154 kts | 102° |
| 2026-04-16 09:00 | 39.36779 | 7.14587 | 9162 ft | 154 kts | 102° |
| 2026-04-16 09:00 | 39.36448 | 7.15911 | 9158 ft | 154 kts | 102° |
| 2026-04-16 09:00 | 39.36120 | 7.17213 | 9158 ft | 154 kts | 102° |
| 2026-04-16 09:00 | 39.35789 | 7.18528 | 9161 ft | 154 kts | 102° |
| 2026-04-16 09:01 | 39.35134 | 7.21146 | 9159 ft | 153 kts | 102° |
| 2026-04-16 09:01 | 39.34806 | 7.22463 | 9159 ft | 154 kts | 102° |
| 2026-04-16 09:01 | 39.34478 | 7.23781 | 9158 ft | 154 kts | 102° |
| 2026-04-16 09:02 | 39.34150 | 7.25096 | 9158 ft | 154 kts | 102° |
| 2026-04-16 09:02 | 39.33825 | 7.26402 | 9161 ft | 154 kts | 102° |
| 2026-04-16 09:02 | 39.33494 | 7.27721 | 9159 ft | 154 kts | 102° |
| 2026-04-16 09:02 | 39.33164 | 7.29035 | 9154 ft | 154 kts | 102° |
| 2026-04-16 09:03 | 39.32830 | 7.30348 | 9158 ft | 154 kts | 103° |
| 2026-04-16 09:03 | 39.32499 | 7.31646 | 9160 ft | 154 kts | 102° |
| 2026-04-16 09:03 | 39.32165 | 7.32966 | 9160 ft | 154 kts | 102° |
| 2026-04-16 09:03 | 39.31834 | 7.34286 | 9163 ft | 154 kts | 102° |
| 2026-04-16 09:04 | 39.31507 | 7.35591 | 9158 ft | 154 kts | 102° |
| 2026-04-16 09:04 | 39.31176 | 7.36916 | 9157 ft | 154 kts | 102° |
| 2026-04-16 09:04 | 39.30845 | 7.38237 | 9156 ft | 154 kts | 103° |
| 2026-04-16 09:04 | 39.30519 | 7.39538 | 9158 ft | 154 kts | 103° |
| 2026-04-16 09:05 | 39.30187 | 7.40855 | 9159 ft | 154 kts | 103° |
| 2026-04-16 09:05 | 39.29854 | 7.42177 | 9155 ft | 154 kts | 103° |
| 2026-04-16 09:05 | 39.29527 | 7.43476 | 9158 ft | 154 kts | 103° |
| 2026-04-16 09:05 | 39.29195 | 7.44793 | 9159 ft | 154 kts | 103° |
| 2026-04-16 09:06 | 39.28860 | 7.46107 | 9157 ft | 154 kts | 103° |
| 2026-04-16 09:06 | 39.28529 | 7.47401 | 9155 ft | 154 kts | 103° |
| 2026-04-16 09:06 | 39.28191 | 7.48711 | 9153 ft | 154 kts | 103° |
| 2026-04-16 09:06 | 39.27854 | 7.50026 | 9154 ft | 153 kts | 103° |
| 2026-04-16 09:07 | 39.27518 | 7.51338 | 9153 ft | 154 kts | 103° |
| 2026-04-16 09:07 | 39.27187 | 7.52633 | 9154 ft | 154 kts | 103° |
| 2026-04-16 09:07 | 39.26851 | 7.53944 | 9155 ft | 154 kts | 103° |
| 2026-04-16 09:07 | 39.26516 | 7.55255 | 9152 ft | 154 kts | 103° |
| 2026-04-16 09:08 | 39.26182 | 7.56566 | 9155 ft | 153 kts | 103° |
| 2026-04-16 09:08 | 39.25848 | 7.57882 | 9155 ft | 153 kts | 103° |
| 2026-04-16 09:08 | 39.25517 | 7.59177 | 9150 ft | 153 kts | 103° |
| 2026-04-16 09:08 | 39.25181 | 7.60497 | 9149 ft | 153 kts | 103° |
| 2026-04-16 09:09 | 39.24850 | 7.61791 | 9150 ft | 154 kts | 103° |
| 2026-04-16 09:09 | 39.24516 | 7.63106 | 9149 ft | 154 kts | 103° |
| 2026-04-16 09:09 | 39.24180 | 7.64429 | 9150 ft | 154 kts | 103° |
| 2026-04-16 09:09 | 39.23850 | 7.65734 | 9148 ft | 154 kts | 103° |
| 2026-04-16 09:10 | 39.23516 | 7.67057 | 9150 ft | 154 kts | 103° |
| 2026-04-16 09:10 | 39.23187 | 7.68356 | 9150 ft | 154 kts | 103° |
| 2026-04-16 09:10 | 39.22852 | 7.69672 | 9152 ft | 154 kts | 104° |
| 2026-04-16 09:10 | 39.22515 | 7.70988 | 9149 ft | 154 kts | 104° |
| 2026-04-16 09:11 | 39.22182 | 7.72290 | 9148 ft | 154 kts | 104° |
| 2026-04-16 09:11 | 39.21843 | 7.73607 | 9150 ft | 154 kts | 104° |
| 2026-04-16 09:11 | 39.21503 | 7.74922 | 9150 ft | 154 kts | 104° |
| 2026-04-16 09:11 | 39.21167 | 7.76219 | 9149 ft | 154 kts | 104° |
| 2026-04-16 09:12 | 39.20828 | 7.77533 | 9149 ft | 154 kts | 104° |
| 2026-04-16 09:12 | 39.20488 | 7.78846 | 9147 ft | 154 kts | 104° |
| 2026-04-16 09:12 | 39.20152 | 7.80142 | 9151 ft | 154 kts | 104° |
| 2026-04-16 09:12 | 39.19811 | 7.81458 | 9148 ft | 154 kts | 104° |
| 2026-04-16 09:13 | 39.19472 | 7.82772 | 9146 ft | 154 kts | 104° |
| 2026-04-16 09:13 | 39.19133 | 7.84085 | 9147 ft | 154 kts | 104° |
| 2026-04-16 09:13 | 39.18795 | 7.85395 | 9147 ft | 154 kts | 104° |
| 2026-04-16 09:13 | 39.18460 | 7.86694 | 9148 ft | 154 kts | 104° |
| 2026-04-16 09:14 | 39.18121 | 7.88012 | 9150 ft | 154 kts | 104° |
| 2026-04-16 09:14 | 39.17780 | 7.89331 | 9144 ft | 154 kts | 104° |
| 2026-04-16 09:14 | 39.17441 | 7.90632 | 9147 ft | 155 kts | 104° |
| 2026-04-16 09:14 | 39.17102 | 7.91954 | 9144 ft | 154 kts | 104° |
| 2026-04-16 09:15 | 39.16767 | 7.93257 | 9147 ft | 154 kts | 104° |
| 2026-04-16 09:15 | 39.16431 | 7.94574 | 9149 ft | 155 kts | 104° |
| 2026-04-16 09:15 | 39.16092 | 7.95896 | 9148 ft | 155 kts | 104° |
| 2026-04-16 09:15 | 39.15755 | 7.97196 | 9142 ft | 154 kts | 104° |
| 2026-04-16 09:16 | 39.15412 | 7.98506 | 9140 ft | 154 kts | 104° |
| 2026-04-16 09:16 | 39.15072 | 7.99816 | 9143 ft | 154 kts | 104° |
| 2026-04-16 09:16 | 39.14725 | 8.01132 | 9138 ft | 155 kts | 105° |
| 2026-04-16 09:16 | 39.14355 | 8.02438 | 9141 ft | 154 kts | 107° |
| 2026-04-16 09:17 | 39.13956 | 8.03711 | 9142 ft | 155 kts | 109° |
| 2026-04-16 09:17 | 39.13517 | 8.04985 | 9140 ft | 155 kts | 111° |
| 2026-04-16 09:17 | 39.13041 | 8.06213 | 9138 ft | 155 kts | 114° |
| 2026-04-16 09:17 | 39.12509 | 8.07436 | 9138 ft | 156 kts | 116° |
| 2026-04-16 09:18 | 39.11950 | 8.08647 | 9140 ft | 156 kts | 117° |
| 2026-04-16 09:18 | 39.11389 | 8.09830 | 9138 ft | 157 kts | 118° |
| 2026-04-16 09:18 | 39.10807 | 8.11025 | 9139 ft | 157 kts | 118° |
| 2026-04-16 09:18 | 39.10221 | 8.12213 | 9140 ft | 157 kts | 119° |
| 2026-04-16 09:19 | 39.09636 | 8.13385 | 9139 ft | 157 kts | 118° |
| 2026-04-16 09:19 | 39.09055 | 8.14577 | 9139 ft | 157 kts | 118° |
| 2026-04-16 09:19 | 39.08481 | 8.15783 | 9141 ft | 157 kts | 117° |
| 2026-04-16 09:19 | 39.07931 | 8.16976 | 9140 ft | 157 kts | 116° |
| 2026-04-16 09:20 | 39.07395 | 8.18199 | 9142 ft | 157 kts | 115° |
| 2026-04-16 09:20 | 39.06872 | 8.19430 | 9142 ft | 156 kts | 114° |
| 2026-04-16 09:20 | 39.06368 | 8.20672 | 9142 ft | 156 kts | 112° |
| 2026-04-16 09:20 | 39.05881 | 8.21929 | 9138 ft | 156 kts | 112° |
| 2026-04-16 09:21 | 39.05404 | 8.23177 | 9142 ft | 156 kts | 111° |
| 2026-04-16 09:21 | 39.04936 | 8.24441 | 9136 ft | 156 kts | 111° |
| 2026-04-16 09:21 | 39.04476 | 8.25692 | 9137 ft | 156 kts | 111° |
| 2026-04-16 09:21 | 39.04011 | 8.26962 | 9140 ft | 156 kts | 111° |
| 2026-04-16 09:22 | 39.03550 | 8.28227 | 9136 ft | 156 kts | 111° |
| 2026-04-16 09:22 | 39.03088 | 8.29478 | 9137 ft | 156 kts | 111° |
| 2026-04-16 09:22 | 39.02611 | 8.30740 | 9135 ft | 156 kts | 112° |
| 2026-04-16 09:22 | 39.02134 | 8.31979 | 9134 ft | 156 kts | 112° |
| 2026-04-16 09:23 | 39.01641 | 8.33228 | 9134 ft | 156 kts | 113° |
| 2026-04-16 09:23 | 39.01145 | 8.34456 | 9137 ft | 156 kts | 114° |
| 2026-04-16 09:23 | 39.00635 | 8.35694 | 9136 ft | 156 kts | 114° |
| 2026-04-16 09:23 | 39.00120 | 8.36928 | 9134 ft | 156 kts | 114° |
| 2026-04-16 09:24 | 38.99597 | 8.38161 | 9132 ft | 157 kts | 115° |
| 2026-04-16 09:24 | 38.99076 | 8.39381 | 9137 ft | 158 kts | 115° |
| 2026-04-16 09:24 | 38.98547 | 8.40627 | 9134 ft | 158 kts | 115° |
| 2026-04-16 09:24 | 38.98011 | 8.41872 | 9132 ft | 159 kts | 115° |
| 2026-04-16 09:25 | 38.97481 | 8.43106 | 9135 ft | 159 kts | 115° |
| 2026-04-16 09:25 | 38.96937 | 8.44360 | 9135 ft | 160 kts | 115° |
| 2026-04-16 09:25 | 38.96397 | 8.45615 | 9135 ft | 160 kts | 115° |
| 2026-04-16 09:25 | 38.95867 | 8.46846 | 9131 ft | 159 kts | 114° |
| 2026-04-16 09:26 | 38.95341 | 8.48090 | 9126 ft | 158 kts | 114° |
| 2026-04-16 09:26 | 38.94825 | 8.49336 | 9135 ft | 157 kts | 113° |
| 2026-04-16 09:26 | 38.94320 | 8.50584 | 9128 ft | 157 kts | 113° |
| 2026-04-16 09:26 | 38.93821 | 8.51830 | 9128 ft | 157 kts | 112° |
| 2026-04-16 09:27 | 38.93332 | 8.53062 | 9132 ft | 156 kts | 112° |
| 2026-04-16 09:27 | 38.92836 | 8.54311 | 9128 ft | 156 kts | 112° |
| 2026-04-16 09:27 | 38.92339 | 8.55561 | 9132 ft | 156 kts | 112° |
| 2026-04-16 09:27 | 38.91849 | 8.56795 | 9129 ft | 157 kts | 112° |
| 2026-04-16 09:28 | 38.91354 | 8.58043 | 9126 ft | 156 kts | 112° |
| 2026-04-16 09:28 | 38.90862 | 8.59275 | 9133 ft | 156 kts | 113° |
| 2026-04-16 09:28 | 38.90362 | 8.60515 | 9132 ft | 156 kts | 113° |
| 2026-04-16 09:28 | 38.89857 | 8.61753 | 9132 ft | 156 kts | 113° |
| 2026-04-16 09:29 | 38.89344 | 8.62990 | 9132 ft | 158 kts | 114° |
| 2026-04-16 09:29 | 38.88833 | 8.64218 | 9127 ft | 157 kts | 114° |
| 2026-04-16 09:29 | 38.88316 | 8.65473 | 9126 ft | 159 kts | 113° |
| 2026-04-16 09:29 | 38.87813 | 8.66742 | 9129 ft | 156 kts | 112° |
| 2026-04-16 09:30 | 38.87339 | 8.67864 | 9091 ft | 141 kts | 114° |
| 2026-04-16 09:30 | 38.86866 | 8.68986 | 9117 ft | 144 kts | 113° |
| 2026-04-16 09:30 | 38.86385 | 8.70125 | 9130 ft | 146 kts | 114° |
| 2026-04-16 09:30 | 38.85895 | 8.71273 | 9140 ft | 148 kts | 114° |
| 2026-04-16 09:31 | 38.85391 | 8.72439 | 9146 ft | 150 kts | 114° |
| 2026-04-16 09:31 | 38.84875 | 8.73624 | 9137 ft | 152 kts | 114° |
| 2026-04-16 09:31 | 38.84361 | 8.74805 | 9136 ft | 154 kts | 114° |
| 2026-04-16 09:31 | 38.83839 | 8.76009 | 9129 ft | 154 kts | 114° |
| 2026-04-16 09:32 | 38.83321 | 8.77220 | 9128 ft | 155 kts | 114° |
| 2026-04-16 09:32 | 38.82805 | 8.78442 | 9129 ft | 155 kts | 114° |
| 2026-04-16 09:32 | 38.82301 | 8.79651 | 9125 ft | 155 kts | 113° |